Bowling Green, South Carolina
Current Conditions -  °F | °C
As of 5:54 PM on Monday 20 Oct 2014 (Local Time) from KAKH Reporting Station
Clear Clear  
Wind Chill: 68°   Ceiling: Unl
Heat Index: 68°   Visibility: 10mi
Dew Point: 48°   Wind: 5mph
Humidity: 49%   Direction: 220°SW
Pressure: 29.98"   Gusts: NA
Location:  35.15°N, 81.21°W
Report Text: KAKH 202154Z AUTO 22004KT 10SM CLR 20/09 A2998 RMK AO2 SLP151 T02000089
Loading
Personal Weather Stations






























Interactive Weather Map
Tropical Storm Tracking
New forecast layout! Learn more

10-Day Weather Forecast

Advertisements
Track Severe Weather on mobile